sensor_id;sensor_type;location;lat;lon;timestamp;pressure;altitude;pressure_sealevel;temperature;humidity
78354;BME280;67629;46.040;18.232;2023-07-13T00:00:28;99441.66;;;24.12;70.56
78354;BME280;67629;46.040;18.232;2023-07-13T00:00:59;99433.75;;;24.14;69.85
78354;BME280;67629;46.040;18.232;2023-07-13T00:01:30;99432.16;;;24.13;70.00
78354;BME280;67629;46.040;18.232;2023-07-13T00:02:01;99426.56;;;24.13;70.16
78354;BME280;67629;46.040;18.232;2023-07-13T00:02:32;99424.91;;;24.12;69.84
78354;BME280;67629;46.040;18.232;2023-07-13T00:08:09;99424.91;;;24.12;70.17
78354;BME280;67629;46.040;18.232;2023-07-13T00:08:42;99417.38;;;24.12;70.02
78354;BME280;67629;46.040;18.232;2023-07-13T00:09:15;99411.31;;;24.10;70.35
78354;BME280;67629;46.040;18.232;2023-07-13T00:09:46;99424.28;;;24.06;70.39
78354;BME280;67629;46.040;18.232;2023-07-13T00:10:17;99421.66;;;24.10;70.05
78354;BME280;67629;46.040;18.232;2023-07-13T00:10:48;99415.22;;;24.09;70.01
78354;BME280;67629;46.040;18.232;2023-07-13T00:11:25;99421.47;;;24.06;69.91
78354;BME280;67629;46.040;18.232;2023-07-13T00:11:57;99421.94;;;24.08;70.19
78354;BME280;67629;46.040;18.232;2023-07-13T00:12:33;99427.72;;;24.12;70.06
78354;BME280;67629;46.040;18.232;2023-07-13T00:13:04;99419.81;;;24.14;69.59
78354;BME280;67629;46.040;18.232;2023-07-13T00:13:34;99425.41;;;24.14;69.53
78354;BME280;67629;46.040;18.232;2023-07-13T00:14:08;99425.91;;;24.16;69.89
78354;BME280;67629;46.040;18.232;2023-07-13T00:14:39;99423.94;;;24.16;69.66
78354;BME280;67629;46.040;18.232;2023-07-13T00:15:20;99420.31;;;24.16;69.46
78354;BME280;67629;46.040;18.232;2023-07-13T00:15:54;99418.88;;;24.10;69.97
78354;BME280;67629;46.040;18.232;2023-07-13T00:16:24;99416.38;;;24.08;69.79
78354;BME280;67629;46.040;18.232;2023-07-13T00:16:55;99418.00;;;24.09;69.81
78354;BME280;67629;46.040;18.232;2023-07-13T00:17:27;99418.66;;;24.15;69.46
78354;BME280;67629;46.040;18.232;2023-07-13T00:18:30;99426.38;;;24.18;69.50
78354;BME280;67629;46.040;18.232;2023-07-13T00:19:00;99417.16;;;24.17;69.31
78354;BME280;67629;46.040;18.232;2023-07-13T00:19:31;99421.25;;;24.20;69.60
78354;BME280;67629;46.040;18.232;2023-07-13T00:20:03;99422.06;;;24.20;69.69
78354;BME280;67629;46.040;18.232;2023-07-13T00:20:34;99422.06;;;24.20;69.48
78354;BME280;67629;46.040;18.232;2023-07-13T00:21:05;99417.31;;;24.21;69.35
78354;BME280;67629;46.040;18.232;2023-07-13T00:21:35;99424.03;;;24.20;69.43
78354;BME280;67629;46.040;18.232;2023-07-13T00:22:06;99422.53;;;24.22;69.12
78354;BME280;67629;46.040;18.232;2023-07-13T00:22:37;99428.47;;;24.21;69.29
78354;BME280;67629;46.040;18.232;2023-07-13T00:23:07;99421.25;;;24.20;69.64
78354;BME280;67629;46.040;18.232;2023-07-13T00:23:42;99419.63;;;24.19;69.77
78354;BME280;67629;46.040;18.232;2023-07-13T00:24:16;99422.06;;;24.20;69.69
78354;BME280;67629;46.040;18.232;2023-07-13T00:24:53;99424.03;;;24.20;69.49
78354;BME280;67629;46.040;18.232;2023-07-13T00:25:26;99426.50;;;24.21;69.60
78354;BME280;67629;46.040;18.232;2023-07-13T00:25:58;99416.16;;;24.22;69.40
78354;BME280;67629;46.040;18.232;2023-07-13T00:26:29;99418.47;;;24.20;69.48
78354;BME280;67629;46.040;18.232;2023-07-13T00:27:00;99416.34;;;24.17;69.59
78354;BME280;67629;46.040;18.232;2023-07-13T00:27:31;99414.22;;;24.14;69.34
78354;BME280;67629;46.040;18.232;2023-07-13T00:28:02;99412.25;;;24.14;69.87
78354;BME280;67629;46.040;18.232;2023-07-13T00:28:34;99420.78;;;24.18;69.35
78354;BME280;67629;46.040;18.232;2023-07-13T00:29:05;99417.16;;;24.17;69.77
78354;BME280;67629;46.040;18.232;2023-07-13T00:29:39;99412.75;;;24.16;69.66
78354;BME280;67629;46.040;18.232;2023-07-13T00:30:10;99419.97;;;24.17;69.12
78354;BME280;67629;46.040;18.232;2023-07-13T00:30:41;99416.84;;;24.19;69.08
78354;BME280;67629;46.040;18.232;2023-07-13T00:31:13;99415.66;;;24.20;69.14
78354;BME280;67629;46.040;18.232;2023-07-13T00:31:44;99411.25;;;24.19;69.33
78354;BME280;67629;46.040;18.232;2023-07-13T00:32:16;99424.53;;;24.22;69.38
78354;BME280;67629;46.040;18.232;2023-07-13T00:32:47;99406.47;;;24.19;69.64
78354;BME280;67629;46.040;18.232;2023-07-13T00:33:18;99420.09;;;24.21;69.75
78354;BME280;67629;46.040;18.232;2023-07-13T00:33:48;99416.50;;;24.20;69.36
78354;BME280;67629;46.040;18.232;2023-07-13T00:34:19;99416.16;;;24.22;69.44
78354;BME280;67629;46.040;18.232;2023-07-13T00:34:50;99409.41;;;24.23;69.07
78354;BME280;67629;46.040;18.232;2023-07-13T00:35:21;99409.09;;;24.24;69.51
78354;BME280;67629;46.040;18.232;2023-07-13T00:35:54;99404.66;;;24.23;69.17
78354;BME280;67629;46.040;18.232;2023-07-13T00:36:25;99413.22;;;24.18;69.81
78354;BME280;67629;46.040;18.232;2023-07-13T00:36:56;99410.09;;;24.20;69.94
78354;BME280;67629;46.040;18.232;2023-07-13T00:37:27;99400.88;;;24.19;69.63
78354;BME280;67629;46.040;18.232;2023-07-13T00:37:58;99405.78;;;24.22;69.59
78354;BME280;67629;46.040;18.232;2023-07-13T00:38:29;99410.22;;;24.23;69.36
78354;BME280;67629;46.040;18.232;2023-07-13T00:39:00;99408.59;;;24.22;69.45
78354;BME280;67629;46.040;18.232;2023-07-13T00:39:30;99407.78;;;24.22;69.21
78354;BME280;67629;46.040;18.232;2023-07-13T00:40:04;99417.78;;;24.23;69.25
78354;BME280;67629;46.040;18.232;2023-07-13T00:40:36;99415.34;;;24.21;68.93
78354;BME280;67629;46.040;18.232;2023-07-13T00:41:22;99414.38;;;24.17;69.54
78354;BME280;67629;46.040;18.232;2023-07-13T00:42:09;99417.16;;;24.17;69.47
78354;BME280;67629;46.040;18.232;2023-07-13T00:42:57;99417.53;;;24.16;69.09
78354;BME280;67629;46.040;18.232;2023-07-13T00:43:44;99410.75;;;24.17;69.22
78354;BME280;67629;46.040;18.232;2023-07-13T00:44:30;99409.63;;;24.18;69.17
78354;BME280;67629;46.040;18.232;2023-07-13T00:46:14;99406.69;;;24.14;69.63
78354;BME280;67629;46.040;18.232;2023-07-13T00:47:00;99409.81;;;24.13;69.80
78354;BME280;67629;46.040;18.232;2023-07-13T00:47:46;99401.44;;;24.13;69.65
78354;BME280;67629;46.040;18.232;2023-07-13T00:48:34;99410.66;;;24.13;69.82
78354;BME280;67629;46.040;18.232;2023-07-13T00:49:24;99407.19;;;24.16;69.54
78354;BME280;67629;46.040;18.232;2023-07-13T00:50:14;99417.16;;;24.17;69.54
78354;BME280;67629;46.040;18.232;2023-07-13T00:51:01;99407.50;;;24.15;69.50
78354;BME280;67629;46.040;18.232;2023-07-13T00:51:55;99413.22;;;24.18;69.35
78354;BME280;67629;46.040;18.232;2023-07-13T00:52:45;99404.84;;;24.18;69.35
78354;BME280;67629;46.040;18.232;2023-07-13T00:53:32;99412.88;;;24.20;70.01
78354;BME280;67629;46.040;18.232;2023-07-13T00:54:45;99412.06;;;24.19;69.71
78354;BME280;67629;46.040;18.232;2023-07-13T00:55:17;99418.81;;;24.18;69.82
78354;BME280;67629;46.040;18.232;2023-07-13T00:55:50;99409.63;;;24.18;69.36
78354;BME280;67629;46.040;18.232;2023-07-13T00:56:22;99414.06;;;24.19;69.53
78354;BME280;67629;46.040;18.232;2023-07-13T00:56:55;99408.47;;;24.19;69.42
78354;BME280;67629;46.040;18.232;2023-07-13T00:57:28;99408.47;;;24.19;69.57
78354;BME280;67629;46.040;18.232;2023-07-13T00:57:59;99403.22;;;24.17;69.52
78354;BME280;67629;46.040;18.232;2023-07-13T00:58:30;99402.06;;;24.18;69.41
78354;BME280;67629;46.040;18.232;2023-07-13T00:59:02;99404.03;;;24.18;69.23
78354;BME280;67629;46.040;18.232;2023-07-13T00:59:36;99402.38;;;24.17;69.15
78354;BME280;67629;46.040;18.232;2023-07-13T01:00:11;99415.56;;;24.16;69.49
78354;BME280;67629;46.040;18.232;2023-07-13T01:00:42;99402.28;;;24.13;69.47
78354;BME280;67629;46.040;18.232;2023-07-13T01:01:13;99407.19;;;24.16;69.49
78354;BME280;67629;46.040;18.232;2023-07-13T01:01:44;99409.16;;;24.16;69.43
78354;BME280;67629;46.040;18.232;2023-07-13T01:02:15;99402.59;;;24.12;69.60
78354;BME280;67629;46.040;18.232;2023-07-13T01:02:48;99403.75;;;24.11;69.72
78354;BME280;67629;46.040;18.232;2023-07-13T01:03:19;99410.97;;;24.12;69.62
78354;BME280;67629;46.040;18.232;2023-07-13T01:03:50;99400.16;;;24.10;69.46
78354;BME280;67629;46.040;18.232;2023-07-13T01:04:24;99407.84;;;24.13;69.36
78354;BME280;67629;46.040;18.232;2023-07-13T01:04:56;99409.00;;;24.12;69.18
78354;BME280;67629;46.040;18.232;2023-07-13T01:05:26;99405.22;;;24.08;69.29
78354;BME280;67629;46.040;18.232;2023-07-13T01:05:57;99401.78;;;24.11;69.42
78354;BME280;67629;46.040;18.232;2023-07-13T01:06:28;99408.53;;;24.10;69.54
78354;BME280;67629;46.040;18.232;2023-07-13T01:06:59;99406.22;;;24.12;69.49
78354;BME280;67629;46.040;18.232;2023-07-13T01:07:30;99404.06;;;24.09;69.58
78354;BME280;67629;46.040;18.232;2023-07-13T01:08:02;99405.06;;;24.13;69.24
78354;BME280;67629;46.040;18.232;2023-07-13T01:08:35;99398.16;;;24.11;69.62
78354;BME280;67629;46.040;18.232;2023-07-13T01:09:07;99393.22;;;24.08;69.64
78354;BME280;67629;46.040;18.232;2023-07-13T01:09:39;99391.94;;;24.05;69.14
78354;BME280;67629;46.040;18.232;2023-07-13T01:10:12;99391.94;;;24.05;69.67
78354;BME280;67629;46.040;18.232;2023-07-13T01:10:56;99386.22;;;24.02;69.79
78354;BME280;67629;46.040;18.232;2023-07-13T01:11:27;99385.41;;;24.01;70.06
78354;BME280;67629;46.040;18.232;2023-07-13T01:11:58;99389.50;;;24.04;69.99
78354;BME280;67629;46.040;18.232;2023-07-13T01:12:29;99387.03;;;24.02;69.78
78354;BME280;67629;46.040;18.232;2023-07-13T01:13:01;99386.22;;;24.02;69.79
78354;BME280;67629;46.040;18.232;2023-07-13T01:13:32;99384.13;;;23.99;70.25
78354;BME280;67629;46.040;18.232;2023-07-13T01:14:04;99384.44;;;23.97;70.06
78354;BME280;67629;46.040;18.232;2023-07-13T01:14:35;99380.50;;;23.98;70.43
78354;BME280;67629;46.040;18.232;2023-07-13T01:15:32;99374.09;;;23.98;70.12
78354;BME280;67629;46.040;18.232;2023-07-13T01:16:01;99382.63;;;24.01;70.06
78354;BME280;67629;46.040;18.232;2023-07-13T01:16:36;99370.34;;;23.94;70.56
78354;BME280;67629;46.040;18.232;2023-07-13T01:17:09;99377.91;;;23.93;70.33
78354;BME280;67629;46.040;18.232;2023-07-13T01:17:41;99367.44;;;23.90;70.46
78354;BME280;67629;46.040;18.232;2023-07-13T01:18:20;99377.25;;;23.96;70.20
78354;BME280;67629;46.040;18.232;2023-07-13T01:18:52;99374.78;;;23.95;69.88
78354;BME280;67629;46.040;18.232;2023-07-13T01:19:39;99366.75;;;23.93;70.38
78354;BME280;67629;46.040;18.232;2023-07-13T01:20:10;99365.56;;;23.94;70.25
78354;BME280;67629;46.040;18.232;2023-07-13T01:20:48;99370.34;;;23.94;70.01
78354;BME280;67629;46.040;18.232;2023-07-13T01:21:19;99366.06;;;23.96;70.30
78354;BME280;67629;46.040;18.232;2023-07-13T01:21:51;99368.03;;;23.96;70.11
78354;BME280;67629;46.040;18.232;2023-07-13T01:22:22;99371.66;;;23.96;70.02
78354;BME280;67629;46.040;18.232;2023-07-13T01:22:56;99367.91;;;23.92;70.53
78354;BME280;67629;46.040;18.232;2023-07-13T01:23:29;99367.06;;;23.92;70.28
78354;BME280;67629;46.040;18.232;2023-07-13T01:24:00;99370.69;;;23.92;70.38
78354;BME280;67629;46.040;18.232;2023-07-13T01:24:32;99369.53;;;23.93;70.30
78354;BME280;67629;46.040;18.232;2023-07-13T01:25:03;99370.69;;;23.92;70.27
78354;BME280;67629;46.040;18.232;2023-07-13T01:25:35;99376.72;;;23.94;70.18
78354;BME280;67629;46.040;18.232;2023-07-13T01:26:06;99369.53;;;23.93;70.38
78354;BME280;67629;46.040;18.232;2023-07-13T01:26:37;99371.50;;;23.93;70.46
78354;BME280;67629;46.040;18.232;2023-07-13T01:27:09;99364.63;;;23.90;70.45
78354;BME280;67629;46.040;18.232;2023-07-13T01:27:40;99365.63;;;23.86;70.36
78354;BME280;67629;46.040;18.232;2023-07-13T01:28:11;99363.19;;;23.84;70.75
78354;BME280;67629;46.040;18.232;2023-07-13T01:28:43;99358.75;;;23.83;70.62
78354;BME280;67629;46.040;18.232;2023-07-13T01:29:13;99364.69;;;23.81;71.28
78354;BME280;67629;46.040;18.232;2023-07-13T01:29:44;99361.41;;;23.79;70.42
78354;BME280;67629;46.040;18.232;2023-07-13T01:30:16;99358.00;;;23.74;71.28
78354;BME280;67629;46.040;18.232;2023-07-13T01:30:48;99357.66;;;23.75;70.98
78354;BME280;67629;46.040;18.232;2023-07-13T01:31:18;99365.47;;;23.82;71.21
78354;BME280;67629;46.040;18.232;2023-07-13T01:31:49;99359.13;;;23.81;70.59
78354;BME280;67629;46.040;18.232;2023-07-13T01:32:24;99358.75;;;23.83;70.74
78354;BME280;67629;46.040;18.232;2023-07-13T01:32:55;99367.13;;;23.83;70.42
78354;BME280;67629;46.040;18.232;2023-07-13T01:33:26;99359.91;;;23.82;71.16
78354;BME280;67629;46.040;18.232;2023-07-13T01:34:13;99362.06;;;23.76;71.61
78354;BME280;67629;46.040;18.232;2023-07-13T01:34:43;99361.75;;;23.78;70.91
78354;BME280;67629;46.040;18.232;2023-07-13T01:35:14;99360.09;;;23.77;71.05
78354;BME280;67629;46.040;18.232;2023-07-13T01:36:02;99358.59;;;23.79;70.91
78354;BME280;67629;46.040;18.232;2023-07-13T01:36:33;99362.22;;;23.80;70.64
78354;BME280;67629;46.040;18.232;2023-07-13T01:37:06;99363.03;;;23.80;70.78
78354;BME280;67629;46.040;18.232;2023-07-13T01:37:38;99364.81;;;23.85;70.30
78354;BME280;67629;46.040;18.232;2023-07-13T01:38:25;99363.88;;;23.81;70.24
78354;BME280;67629;46.040;18.232;2023-07-13T01:38:56;99366.19;;;23.79;70.60
78354;BME280;67629;46.040;18.232;2023-07-13T01:39:42;99358.97;;;23.78;70.59
78354;BME280;67629;46.040;18.232;2023-07-13T01:40:29;99362.69;;;23.82;70.70
78354;BME280;67629;46.040;18.232;2023-07-13T01:41:00;99357.94;;;23.82;70.28
78354;BME280;67629;46.040;18.232;2023-07-13T01:41:31;99355.50;;;23.81;70.47
78354;BME280;67629;46.040;18.232;2023-07-13T01:42:17;99349.44;;;23.79;70.51
78354;BME280;67629;46.040;18.232;2023-07-13T01:43:03;99346.16;;;23.77;71.37
78354;BME280;67629;46.040;18.232;2023-07-13T01:43:49;99344.03;;;23.74;71.13
78354;BME280;67629;46.040;18.232;2023-07-13T01:44:35;99343.22;;;23.73;71.07
78354;BME280;67629;46.040;18.232;2023-07-13T01:45:06;99344.53;;;23.76;70.80
78354;BME280;67629;46.040;18.232;2023-07-13T01:45:37;99346.50;;;23.75;70.97
78354;BME280;67629;46.040;18.232;2023-07-13T01:46:08;99345.34;;;23.76;70.76
78354;BME280;67629;46.040;18.232;2023-07-13T01:46:54;99351.72;;;23.77;70.43
78354;BME280;67629;46.040;18.232;2023-07-13T01:47:40;99336.97;;;23.76;71.03
78354;BME280;67629;46.040;18.232;2023-07-13T01:48:26;99343.38;;;23.77;71.04
78354;BME280;67629;46.040;18.232;2023-07-13T01:49:12;99334.19;;;23.76;70.81
78354;BME280;67629;46.040;18.232;2023-07-13T01:49:42;99343.03;;;23.78;70.57
78354;BME280;67629;46.040;18.232;2023-07-13T01:50:28;99335.69;;;23.74;70.34
78354;BME280;67629;46.040;18.232;2023-07-13T01:50:59;99342.06;;;23.74;70.58
78354;BME280;67629;46.040;18.232;2023-07-13T01:51:30;99332.88;;;23.74;70.24
78354;BME280;67629;46.040;18.232;2023-07-13T01:52:16;99339.75;;;23.76;70.33
78354;BME280;67629;46.040;18.232;2023-07-13T01:52:48;99339.75;;;23.76;69.98
78354;BME280;67629;46.040;18.232;2023-07-13T01:53:33;99338.13;;;23.75;69.94
78354;BME280;67629;46.040;18.232;2023-07-13T01:54:04;99342.53;;;23.76;70.58
78354;BME280;67629;46.040;18.232;2023-07-13T01:54:50;99339.75;;;23.76;69.95
78354;BME280;67629;46.040;18.232;2023-07-13T01:55:36;99333.25;;;23.72;70.84
78354;BME280;67629;46.040;18.232;2023-07-13T01:56:22;99340.00;;;23.63;71.28
78354;BME280;67629;46.040;18.232;2023-07-13T01:57:09;99330.00;;;23.62;71.25
78354;BME280;67629;46.040;18.232;2023-07-13T01:57:39;99333.59;;;23.62;71.50
78354;BME280;67629;46.040;18.232;2023-07-13T01:58:25;99326.75;;;23.60;72.01
78354;BME280;67629;46.040;18.232;2023-07-13T01:59:11;99324.47;;;23.53;72.35
78354;BME280;67629;46.040;18.232;2023-07-13T01:59:57;99314.69;;;23.47;72.17
78354;BME280;67629;46.040;18.232;2023-07-13T02:00:43;99321.06;;;23.48;72.73
78354;BME280;67629;46.040;18.232;2023-07-13T02:01:14;99317.59;;;23.51;71.79
78354;BME280;67629;46.040;18.232;2023-07-13T02:01:59;99317.75;;;23.54;71.46
78354;BME280;67629;46.040;18.232;2023-07-13T02:02:30;99318.56;;;23.55;71.51
78354;BME280;67629;46.040;18.232;2023-07-13T02:03:01;99328.59;;;23.56;71.79
78354;BME280;67629;46.040;18.232;2023-07-13T02:03:32;99330.19;;;23.57;71.47
78354;BME280;67629;46.040;18.232;2023-07-13T02:04:03;99326.28;;;23.58;71.66
78354;BME280;67629;46.040;18.232;2023-07-13T02:04:34;99331.84;;;23.58;71.16
78354;BME280;67629;46.040;18.232;2023-07-13T02:05:06;99329.53;;;23.60;71.06
78354;BME280;67629;46.040;18.232;2023-07-13T02:05:37;99328.22;;;23.57;71.06
78354;BME280;67629;46.040;18.232;2023-07-13T02:06:07;99333.97;;;23.61;71.33
78354;BME280;67629;46.040;18.232;2023-07-13T02:06:38;99329.53;;;23.60;70.86
78354;BME280;67629;46.040;18.232;2023-07-13T02:07:09;99334.44;;;23.63;71.22
78354;BME280;67629;46.040;18.232;2023-07-13T02:07:55;99323.13;;;23.59;70.82
78354;BME280;67629;46.040;18.232;2023-07-13T02:08:26;99326.88;;;23.63;71.25
78354;BME280;67629;46.040;18.232;2023-07-13T02:08:57;99326.53;;;23.65;70.56
78354;BME280;67629;46.040;18.232;2023-07-13T02:09:28;99314.75;;;23.59;71.14
78354;BME280;67629;46.040;18.232;2023-07-13T02:09:59;99317.91;;;23.58;70.93
78354;BME280;67629;46.040;18.232;2023-07-13T02:10:30;99324.31;;;23.58;70.97
78354;BME280;67629;46.040;18.232;2023-07-13T02:11:03;99317.56;;;23.59;71.07
78354;BME280;67629;46.040;18.232;2023-07-13T02:11:34;99309.19;;;23.59;70.85
78354;BME280;67629;46.040;18.232;2023-07-13T02:12:05;99307.56;;;23.58;71.43
78354;BME280;67629;46.040;18.232;2023-07-13T02:12:36;99307.91;;;23.57;71.19
78354;BME280;67629;46.040;18.232;2023-07-13T02:13:07;99309.19;;;23.59;71.00
78354;BME280;67629;46.040;18.232;2023-07-13T02:13:38;99300.69;;;23.56;70.96
78354;BME280;67629;46.040;18.232;2023-07-13T02:14:09;99302.31;;;23.57;70.89
78354;BME280;67629;46.040;18.232;2023-07-13T02:14:40;99298.91;;;23.51;70.85
78354;BME280;67629;46.040;18.232;2023-07-13T02:23:11;99327.22;;;23.62;70.67
78354;BME280;67629;46.040;18.232;2023-07-13T02:23:41;99327.91;;;23.59;70.78
78354;BME280;67629;46.040;18.232;2023-07-13T02:24:12;99322.81;;;23.61;70.66
78354;BME280;67629;46.040;18.232;2023-07-13T02:24:50;99324.41;;;23.62;69.97
78354;BME280;67629;46.040;18.232;2023-07-13T02:25:21;99324.78;;;23.60;70.78
78354;BME280;67629;46.040;18.232;2023-07-13T02:25:59;99328.69;;;23.59;71.03
78354;BME280;67629;46.040;18.232;2023-07-13T02:26:30;99324.31;;;23.58;71.22
78354;BME280;67629;46.040;18.232;2023-07-13T02:27:01;99323.31;;;23.54;71.24
78354;BME280;67629;46.040;18.232;2023-07-13T02:27:32;99323.00;;;23.56;70.45
78354;BME280;67629;46.040;18.232;2023-07-13T02:28:03;99314.66;;;23.56;70.16
78354;BME280;67629;46.040;18.232;2023-07-13T02:28:34;99326.75;;;23.60;70.47
78354;BME280;67629;46.040;18.232;2023-07-13T02:29:05;99325.75;;;23.64;70.18
78354;BME280;67629;46.040;18.232;2023-07-13T02:29:36;99324.91;;;23.64;70.51
78354;BME280;67629;46.040;18.232;2023-07-13T02:30:10;99330.50;;;23.64;70.49
78354;BME280;67629;46.040;18.232;2023-07-13T02:30:41;99330.97;;;23.66;70.22
78354;BME280;67629;46.040;18.232;2023-07-13T02:31:14;99320.16;;;23.64;70.23
78354;BME280;67629;46.040;18.232;2023-07-13T02:31:49;99327.56;;;23.60;70.17
78354;BME280;67629;46.040;18.232;2023-07-13T02:32:21;99331.66;;;23.63;70.07
78354;BME280;67629;46.040;18.232;2023-07-13T02:32:52;99329.69;;;23.63;70.06
78354;BME280;67629;46.040;18.232;2023-07-13T02:33:22;99325.25;;;23.62;70.17
78354;BME280;67629;46.040;18.232;2023-07-13T02:33:53;99330.97;;;23.66;69.54
78354;BME280;67629;46.040;18.232;2023-07-13T02:34:24;99325.75;;;23.64;69.55
78354;BME280;67629;46.040;18.232;2023-07-13T02:34:55;99328.53;;;23.64;69.63
78354;BME280;67629;46.040;18.232;2023-07-13T02:35:25;99333.44;;;23.67;69.92
78354;BME280;67629;46.040;18.232;2023-07-13T02:35:56;99335.41;;;23.67;69.88
78354;BME280;67629;46.040;18.232;2023-07-13T02:36:27;99323.44;;;23.66;69.92
78354;BME280;67629;46.040;18.232;2023-07-13T02:36:58;99339.34;;;23.66;69.51
78354;BME280;67629;46.040;18.232;2023-07-13T02:37:29;99327.22;;;23.62;69.37
78354;BME280;67629;46.040;18.232;2023-07-13T02:38:00;99327.72;;;23.64;69.95
78354;BME280;67629;46.040;18.232;2023-07-13T02:38:32;99327.22;;;23.62;70.09
78354;BME280;67629;46.040;18.232;2023-07-13T02:39:06;99329.31;;;23.65;70.16
78354;BME280;67629;46.040;18.232;2023-07-13T02:39:37;99330.16;;;23.65;69.77
78354;BME280;67629;46.040;18.232;2023-07-13T02:40:08;99331.78;;;23.66;69.52
78354;BME280;67629;46.040;18.232;2023-07-13T02:40:39;99334.59;;;23.66;69.42
78354;BME280;67629;46.040;18.232;2023-07-13T02:41:10;99330.16;;;23.65;69.37
78354;BME280;67629;46.040;18.232;2023-07-13T02:41:41;99326.53;;;23.65;69.97
78354;BME280;67629;46.040;18.232;2023-07-13T02:42:12;99328.19;;;23.66;69.41
78354;BME280;67629;46.040;18.232;2023-07-13T02:42:59;99326.53;;;23.65;69.40
78354;BME280;67629;46.040;18.232;2023-07-13T02:43:45;99331.66;;;23.63;69.46
78354;BME280;67629;46.040;18.232;2023-07-13T02:44:31;99327.72;;;23.64;69.42
78354;BME280;67629;46.040;18.232;2023-07-13T02:45:02;99329.81;;;23.67;69.19
78354;BME280;67629;46.040;18.232;2023-07-13T02:45:48;99321.31;;;23.63;68.87
78354;BME280;67629;46.040;18.232;2023-07-13T02:46:36;99332.63;;;23.67;69.00
78354;BME280;67629;46.040;18.232;2023-07-13T02:47:22;99337.03;;;23.68;68.67
78354;BME280;67629;46.040;18.232;2023-07-13T02:48:09;99334.22;;;23.68;69.19
78354;BME280;67629;46.040;18.232;2023-07-13T02:48:40;99340.63;;;23.68;68.64
78354;BME280;67629;46.040;18.232;2023-07-13T02:49:26;99340.16;;;23.66;69.00
78354;BME280;67629;46.040;18.232;2023-07-13T02:50:11;99338.03;;;23.63;68.59
78354;BME280;67629;46.040;18.232;2023-07-13T02:50:57;99345.75;;;23.66;68.48
78354;BME280;67629;46.040;18.232;2023-07-13T02:51:43;99340.63;;;23.68;68.83
78354;BME280;67629;46.040;18.232;2023-07-13T02:52:29;99350.97;;;23.68;68.68
78354;BME280;67629;46.040;18.232;2023-07-13T02:53:14;99343.78;;;23.67;68.79
78354;BME280;67629;46.040;18.232;2023-07-13T02:54:02;99349.66;;;23.65;68.80
78354;BME280;67629;46.040;18.232;2023-07-13T02:54:49;99340.00;;;23.63;68.89
78354;BME280;67629;46.040;18.232;2023-07-13T02:55:35;99348.38;;;23.63;68.68
78354;BME280;67629;46.040;18.232;2023-07-13T02:56:24;99347.91;;;23.61;68.57
78354;BME280;67629;46.040;18.232;2023-07-13T02:57:10;99351.16;;;23.63;68.32
78354;BME280;67629;46.040;18.232;2023-07-13T02:57:56;99360.50;;;23.67;69.08
78354;BME280;67629;46.040;18.232;2023-07-13T02:58:42;99362.13;;;23.68;68.98
78354;BME280;67629;46.040;18.232;2023-07-13T02:59:28;99357.09;;;23.61;68.88
78354;BME280;67629;46.040;18.232;2023-07-13T03:00:14;99362.66;;;23.61;69.31
78354;BME280;67629;46.040;18.232;2023-07-13T03:01:09;99364.63;;;23.61;69.54
78354;BME280;67629;46.040;18.232;2023-07-13T03:01:55;99356.28;;;23.61;69.63
78354;BME280;67629;46.040;18.232;2023-07-13T03:02:41;99359.53;;;23.63;69.04
78354;BME280;67629;46.040;18.232;2023-07-13T03:03:27;99363.97;;;23.64;69.30
78354;BME280;67629;46.040;18.232;2023-07-13T03:03:57;99365.59;;;23.65;69.31
78354;BME280;67629;46.040;18.232;2023-07-13T03:04:29;99364.28;;;23.62;69.08
78354;BME280;67629;46.040;18.232;2023-07-13T03:05:00;99357.09;;;23.61;68.80
78354;BME280;67629;46.040;18.232;2023-07-13T03:05:34;99367.22;;;23.66;69.48
78354;BME280;67629;46.040;18.232;2023-07-13T03:06:05;99364.78;;;23.64;69.14
78354;BME280;67629;46.040;18.232;2023-07-13T03:06:38;99362.31;;;23.63;68.79
78354;BME280;67629;46.040;18.232;2023-07-13T03:07:09;99362.31;;;23.63;69.11
78354;BME280;67629;46.040;18.232;2023-07-13T03:07:55;99364.28;;;23.62;69.37
78354;BME280;67629;46.040;18.232;2023-07-13T03:08:41;99363.47;;;23.62;69.69
78354;BME280;67629;46.040;18.232;2023-07-13T03:09:27;99366.25;;;23.62;69.25
78354;BME280;67629;46.040;18.232;2023-07-13T03:10:13;99372.66;;;23.62;69.82
78354;BME280;67629;46.040;18.232;2023-07-13T03:11:01;99373.31;;;23.59;69.94
78354;BME280;67629;46.040;18.232;2023-07-13T03:11:31;99374.31;;;23.63;69.97
78354;BME280;67629;46.040;18.232;2023-07-13T03:12:02;99371.03;;;23.61;69.74
78354;BME280;67629;46.040;18.232;2023-07-13T03:12:33;99380.53;;;23.60;69.99
78354;BME280;67629;46.040;18.232;2023-07-13T03:13:04;99379.09;;;23.54;70.41
78354;BME280;67629;46.040;18.232;2023-07-13T03:13:34;99368.97;;;23.50;70.38
78354;BME280;67629;46.040;18.232;2023-07-13T03:14:07;99373.03;;;23.52;70.70
78354;BME280;67629;46.040;18.232;2023-07-13T03:14:38;99375.63;;;23.57;70.71
78354;BME280;67629;46.040;18.232;2023-07-13T03:15:09;99369.09;;;23.53;70.23
78354;BME280;67629;46.040;18.232;2023-07-13T03:15:40;99372.69;;;23.54;70.59
78354;BME280;67629;46.040;18.232;2023-07-13T03:16:11;99364.34;;;23.54;70.84
78354;BME280;67629;46.040;18.232;2023-07-13T03:16:42;99373.03;;;23.52;71.49
78354;BME280;67629;46.040;18.232;2023-07-13T03:17:13;99371.56;;;23.55;71.23
78354;BME280;67629;46.040;18.232;2023-07-13T03:17:43;99370.72;;;23.54;71.04
78354;BME280;67629;46.040;18.232;2023-07-13T03:18:14;99366.44;;;23.57;70.59
78354;BME280;67629;46.040;18.232;2023-07-13T03:18:47;99362.72;;;23.53;71.17
78354;BME280;67629;46.040;18.232;2023-07-13T03:19:18;99382.09;;;23.49;71.48
78354;BME280;67629;46.040;18.232;2023-07-13T03:19:49;99382.41;;;23.48;71.64